John F Kennedy International Airport
KJFK : now visible

Airfield :











YOU CAN JOIN US ON...

 
LOGIN :

Register | Disclaimer

   EN    FR    IT 

 









Legend :    VFR   Marginal VFR   IFR   Intensive IFR   Very Intensive IFR
Visi :
Ceiling :
>= 8 km
>= 3000ft
5 to 8 km
1000 to 3000 ft
1500m to 5 km
500 to 1000 ft
800 to 1500m
200 to 500 ft
< 800m
< 200 ft
Symbols :   Thunderstorms  Fog  Heavy snow  Heavy precipitations  Wind > 20 kt







- Airport Elevation : 13 ft
- IATA code : JFK


KJFK - John F Kennedy International

CURRENT METAR :
  • 162151Z 14003KT 10SM FEW035 BKN075 BKN110 22/19 A3002 RMK AO2 SLP164 T02170189

EXPIRED METARs :
  • 162051Z 14005KT 10SM FEW037 OVC075 22/18 A3001 RMK AO2 SLP163 T02170183 56010
  • 161951Z 15005KT 10SM FEW037 BKN080 BKN130 22/18 A3002 RMK AO2 SLP165 T02220183

TAF KJFK
Valid from the 16 at 22:00 until the 18 at 00:00 UTC


162137Z 1622/1724 15007KT P6SM FEW040 BKN090
FM170200 02007KT P6SM FEW090
FM170600 02010KT P6SM SKC
No reported NOTAMs for that airfield.



MET'MAP, your aeronautical weather chart ! - Copyright ORBIFLY December 2007 - Disclaimer

ORBIFLY MET'MAP TEAM :

Programming & Development : Alexandra Zaïnal
Concept & Development : Baudouin d'Aumeries
Co-Development & Prog : Marc-Olivier Méhu
Technical & hardware support : Manuel Goepfert

Contact : metmap@orbifly.com




SOURCES & CREDITS :

   NOAA       Earth
Advisory